sensor_id;sensor_type;location;lat;lon;timestamp;P1;durP1;ratioP1;P2;durP2;ratioP2
50429;SDS011;36359;41.556;-8.418;2022-10-29T00:01:49;8.77;;;3.25;;
50429;SDS011;36359;41.556;-8.418;2022-10-29T00:04:15;10.75;;;3.92;;
50429;SDS011;36359;41.556;-8.418;2022-10-29T00:06:40;9.43;;;3.47;;
50429;SDS011;36359;41.556;-8.418;2022-10-29T00:09:06;7.50;;;3.42;;
50429;SDS011;36359;41.556;-8.418;2022-10-29T00:11:32;10.77;;;2.83;;
50429;SDS011;36359;41.556;-8.418;2022-10-29T00:13:59;8.98;;;2.92;;
50429;SDS011;36359;41.556;-8.418;2022-10-29T00:16:27;8.40;;;3.13;;
50429;SDS011;36359;41.556;-8.418;2022-10-29T00:18:55;13.25;;;4.15;;
50429;SDS011;36359;41.556;-8.418;2022-10-29T00:21:22;7.45;;;3.08;;
50429;SDS011;36359;41.556;-8.418;2022-10-29T00:23:49;9.60;;;3.13;;
50429;SDS011;36359;41.556;-8.418;2022-10-29T00:26:17;8.27;;;3.47;;
50429;SDS011;36359;41.556;-8.418;2022-10-29T00:28:44;10.15;;;3.63;;
50429;SDS011;36359;41.556;-8.418;2022-10-29T00:31:14;9.00;;;3.80;;
50429;SDS011;36359;41.556;-8.418;2022-10-29T00:33:43;8.00;;;3.63;;
50429;SDS011;36359;41.556;-8.418;2022-10-29T00:36:20;7.68;;;3.13;;
50429;SDS011;36359;41.556;-8.418;2022-10-29T00:38:47;8.65;;;3.47;;
50429;SDS011;36359;41.556;-8.418;2022-10-29T00:41:15;8.25;;;3.28;;
50429;SDS011;36359;41.556;-8.418;2022-10-29T00:43:47;9.23;;;3.42;;
50429;SDS011;36359;41.556;-8.418;2022-10-29T00:46:25;9.52;;;3.45;;
50429;SDS011;36359;41.556;-8.418;2022-10-29T00:48:58;7.93;;;3.58;;
50429;SDS011;36359;41.556;-8.418;2022-10-29T00:51:24;9.13;;;3.15;;
50429;SDS011;36359;41.556;-8.418;2022-10-29T00:53:53;9.30;;;3.35;;
50429;SDS011;36359;41.556;-8.418;2022-10-29T00:56:25;10.23;;;3.83;;
50429;SDS011;36359;41.556;-8.418;2022-10-29T00:58:53;9.40;;;3.38;;
50429;SDS011;36359;41.556;-8.418;2022-10-29T01:01:19;9.35;;;3.45;;
50429;SDS011;36359;41.556;-8.418;2022-10-29T01:03:45;9.32;;;3.33;;
50429;SDS011;36359;41.556;-8.418;2022-10-29T01:06:12;13.35;;;3.75;;
50429;SDS011;36359;41.556;-8.418;2022-10-29T01:08:39;9.40;;;3.20;;
50429;SDS011;36359;41.556;-8.418;2022-10-29T01:21:51;9.25;;;3.42;;
50429;SDS011;36359;41.556;-8.418;2022-10-29T01:33:16;3.20;;;1.80;;
50429;SDS011;36359;41.556;-8.418;2022-10-29T01:41:31;2.97;;;1.05;;
50429;SDS011;36359;41.556;-8.418;2022-10-29T01:46:55;3.97;;;1.30;;
50429;SDS011;36359;41.556;-8.418;2022-10-29T01:49:27;2.58;;;1.08;;
50429;SDS011;36359;41.556;-8.418;2022-10-29T01:51:59;2.38;;;1.17;;
50429;SDS011;36359;41.556;-8.418;2022-10-29T01:54:27;5.03;;;1.50;;
50429;SDS011;36359;41.556;-8.418;2022-10-29T01:56:53;4.00;;;1.40;;
50429;SDS011;36359;41.556;-8.418;2022-10-29T01:59:20;6.55;;;1.88;;
50429;SDS011;36359;41.556;-8.418;2022-10-29T02:04:53;4.28;;;1.25;;
50429;SDS011;36359;41.556;-8.418;2022-10-29T02:13:03;8.43;;;4.88;;
50429;SDS011;36359;41.556;-8.418;2022-10-29T02:15:33;9.32;;;6.47;;
50429;SDS011;36359;41.556;-8.418;2022-10-29T02:18:02;6.65;;;4.57;;
50429;SDS011;36359;41.556;-8.418;2022-10-29T02:20:30;4.88;;;3.47;;
50429;SDS011;36359;41.556;-8.418;2022-10-29T02:22:56;5.28;;;2.10;;
50429;SDS011;36359;41.556;-8.418;2022-10-29T02:25:22;7.20;;;2.33;;
50429;SDS011;36359;41.556;-8.418;2022-10-29T02:27:48;10.95;;;2.97;;
50429;SDS011;36359;41.556;-8.418;2022-10-29T02:30:14;13.75;;;3.50;;
50429;SDS011;36359;41.556;-8.418;2022-10-29T02:32:40;8.45;;;2.75;;
50429;SDS011;36359;41.556;-8.418;2022-10-29T02:35:06;8.98;;;2.58;;
50429;SDS011;36359;41.556;-8.418;2022-10-29T02:37:32;6.20;;;2.47;;
50429;SDS011;36359;41.556;-8.418;2022-10-29T02:39:58;7.20;;;2.50;;
50429;SDS011;36359;41.556;-8.418;2022-10-29T02:42:24;9.38;;;3.20;;
50429;SDS011;36359;41.556;-8.418;2022-10-29T02:44:50;8.30;;;2.50;;
50429;SDS011;36359;41.556;-8.418;2022-10-29T02:47:15;10.90;;;3.38;;
50429;SDS011;36359;41.556;-8.418;2022-10-29T02:49:41;8.00;;;2.80;;
50429;SDS011;36359;41.556;-8.418;2022-10-29T02:52:07;7.25;;;2.58;;
50429;SDS011;36359;41.556;-8.418;2022-10-29T02:54:33;6.50;;;3.00;;
50429;SDS011;36359;41.556;-8.418;2022-10-29T02:56:58;7.05;;;2.72;;
50429;SDS011;36359;41.556;-8.418;2022-10-29T02:59:24;9.20;;;3.28;;
50429;SDS011;36359;41.556;-8.418;2022-10-29T03:01:50;9.60;;;3.58;;
50429;SDS011;36359;41.556;-8.418;2022-10-29T03:04:16;5.65;;;2.15;;
50429;SDS011;36359;41.556;-8.418;2022-10-29T03:06:41;8.95;;;2.90;;
50429;SDS011;36359;41.556;-8.418;2022-10-29T03:09:07;8.35;;;3.03;;
50429;SDS011;36359;41.556;-8.418;2022-10-29T03:11:33;7.22;;;2.65;;
50429;SDS011;36359;41.556;-8.418;2022-10-29T03:13:59;8.95;;;2.75;;
50429;SDS011;36359;41.556;-8.418;2022-10-29T03:16:24;8.00;;;3.00;;
50429;SDS011;36359;41.556;-8.418;2022-10-29T03:18:50;9.45;;;3.92;;
50429;SDS011;36359;41.556;-8.418;2022-10-29T03:21:16;6.18;;;2.95;;
50429;SDS011;36359;41.556;-8.418;2022-10-29T03:23:42;8.13;;;4.07;;
50429;SDS011;36359;41.556;-8.418;2022-10-29T03:26:07;6.60;;;3.35;;
50429;SDS011;36359;41.556;-8.418;2022-10-29T03:28:35;10.30;;;2.47;;
50429;SDS011;36359;41.556;-8.418;2022-10-29T03:31:00;8.18;;;2.90;;
50429;SDS011;36359;41.556;-8.418;2022-10-29T03:33:26;8.82;;;3.50;;
50429;SDS011;36359;41.556;-8.418;2022-10-29T03:35:56;8.60;;;3.20;;
50429;SDS011;36359;41.556;-8.418;2022-10-29T03:38:22;9.48;;;2.70;;
50429;SDS011;36359;41.556;-8.418;2022-10-29T03:40:48;7.43;;;2.70;;
50429;SDS011;36359;41.556;-8.418;2022-10-29T03:43:14;6.07;;;2.90;;
50429;SDS011;36359;41.556;-8.418;2022-10-29T03:45:40;6.88;;;3.38;;
50429;SDS011;36359;41.556;-8.418;2022-10-29T03:48:05;9.27;;;3.08;;
50429;SDS011;36359;41.556;-8.418;2022-10-29T03:50:31;9.25;;;2.92;;
50429;SDS011;36359;41.556;-8.418;2022-10-29T03:52:57;12.27;;;3.38;;
50429;SDS011;36359;41.556;-8.418;2022-10-29T03:55:22;6.45;;;2.83;;
50429;SDS011;36359;41.556;-8.418;2022-10-29T03:57:48;9.68;;;2.83;;
50429;SDS011;36359;41.556;-8.418;2022-10-29T04:00:14;11.80;;;3.10;;
50429;SDS011;36359;41.556;-8.418;2022-10-29T04:02:40;9.63;;;3.35;;
50429;SDS011;36359;41.556;-8.418;2022-10-29T04:05:06;6.50;;;2.90;;
50429;SDS011;36359;41.556;-8.418;2022-10-29T04:07:32;8.75;;;2.63;;
50429;SDS011;36359;41.556;-8.418;2022-10-29T04:09:58;12.30;;;3.10;;
50429;SDS011;36359;41.556;-8.418;2022-10-29T04:12:24;6.93;;;2.90;;
50429;SDS011;36359;41.556;-8.418;2022-10-29T04:14:49;9.10;;;3.10;;
50429;SDS011;36359;41.556;-8.418;2022-10-29T04:17:15;10.30;;;3.00;;
50429;SDS011;36359;41.556;-8.418;2022-10-29T04:19:41;7.07;;;2.28;;
50429;SDS011;36359;41.556;-8.418;2022-10-29T04:22:07;7.25;;;2.50;;
50429;SDS011;36359;41.556;-8.418;2022-10-29T04:24:32;11.15;;;3.15;;
50429;SDS011;36359;41.556;-8.418;2022-10-29T04:26:58;5.50;;;2.60;;
50429;SDS011;36359;41.556;-8.418;2022-10-29T04:29:24;8.70;;;2.33;;
50429;SDS011;36359;41.556;-8.418;2022-10-29T04:31:49;6.60;;;2.75;;
50429;SDS011;36359;41.556;-8.418;2022-10-29T04:34:15;13.25;;;2.95;;
50429;SDS011;36359;41.556;-8.418;2022-10-29T04:36:41;10.95;;;2.80;;
50429;SDS011;36359;41.556;-8.418;2022-10-29T04:39:06;8.63;;;2.53;;
50429;SDS011;36359;41.556;-8.418;2022-10-29T04:41:32;7.07;;;2.30;;
50429;SDS011;36359;41.556;-8.418;2022-10-29T04:43:59;7.43;;;2.50;;
50429;SDS011;36359;41.556;-8.418;2022-10-29T04:46:25;7.57;;;2.33;;
50429;SDS011;36359;41.556;-8.418;2022-10-29T04:48:51;6.15;;;2.50;;
50429;SDS011;36359;41.556;-8.418;2022-10-29T04:51:20;8.05;;;2.75;;
50429;SDS011;36359;41.556;-8.418;2022-10-29T04:53:48;6.70;;;2.80;;
50429;SDS011;36359;41.556;-8.418;2022-10-29T04:56:14;7.43;;;2.92;;
50429;SDS011;36359;41.556;-8.418;2022-10-29T04:58:40;5.40;;;2.28;;
50429;SDS011;36359;41.556;-8.418;2022-10-29T05:01:06;7.75;;;2.70;;
50429;SDS011;36359;41.556;-8.418;2022-10-29T05:03:32;5.50;;;2.33;;
50429;SDS011;36359;41.556;-8.418;2022-10-29T05:06:01;4.60;;;2.20;;
50429;SDS011;36359;41.556;-8.418;2022-10-29T05:08:30;6.35;;;2.00;;
50429;SDS011;36359;41.556;-8.418;2022-10-29T05:10:56;9.05;;;2.65;;
50429;SDS011;36359;41.556;-8.418;2022-10-29T05:13:21;7.30;;;2.28;;
50429;SDS011;36359;41.556;-8.418;2022-10-29T05:15:50;5.78;;;2.47;;
50429;SDS011;36359;41.556;-8.418;2022-10-29T05:18:16;5.70;;;2.58;;
50429;SDS011;36359;41.556;-8.418;2022-10-29T05:20:42;7.47;;;2.28;;
50429;SDS011;36359;41.556;-8.418;2022-10-29T05:23:09;8.82;;;2.70;;
50429;SDS011;36359;41.556;-8.418;2022-10-29T05:25:36;5.65;;;2.10;;
50429;SDS011;36359;41.556;-8.418;2022-10-29T05:28:11;6.32;;;2.40;;
50429;SDS011;36359;41.556;-8.418;2022-10-29T05:30:38;6.03;;;2.50;;
50429;SDS011;36359;41.556;-8.418;2022-10-29T05:33:08;5.88;;;2.08;;
50429;SDS011;36359;41.556;-8.418;2022-10-29T05:35:35;4.18;;;2.10;;
50429;SDS011;36359;41.556;-8.418;2022-10-29T05:38:01;6.95;;;2.60;;
50429;SDS011;36359;41.556;-8.418;2022-10-29T05:40:28;8.85;;;2.72;;
50429;SDS011;36359;41.556;-8.418;2022-10-29T05:42:54;8.32;;;2.60;;
50429;SDS011;36359;41.556;-8.418;2022-10-29T05:45:19;10.98;;;3.42;;
50429;SDS011;36359;41.556;-8.418;2022-10-29T05:47:45;8.43;;;2.60;;
50429;SDS011;36359;41.556;-8.418;2022-10-29T05:50:11;8.80;;;2.85;;
50429;SDS011;36359;41.556;-8.418;2022-10-29T05:52:38;6.60;;;2.40;;
50429;SDS011;36359;41.556;-8.418;2022-10-29T05:55:04;6.88;;;2.50;;
50429;SDS011;36359;41.556;-8.418;2022-10-29T05:57:31;9.82;;;2.63;;
50429;SDS011;36359;41.556;-8.418;2022-10-29T05:59:57;12.25;;;3.47;;
50429;SDS011;36359;41.556;-8.418;2022-10-29T06:02:22;11.40;;;4.07;;
50429;SDS011;36359;41.556;-8.418;2022-10-29T06:04:48;10.18;;;3.25;;
50429;SDS011;36359;41.556;-8.418;2022-10-29T06:07:14;9.55;;;3.08;;
50429;SDS011;36359;41.556;-8.418;2022-10-29T06:09:40;5.90;;;2.30;;
50429;SDS011;36359;41.556;-8.418;2022-10-29T06:12:06;9.52;;;2.70;;
50429;SDS011;36359;41.556;-8.418;2022-10-29T06:14:31;6.18;;;2.45;;
50429;SDS011;36359;41.556;-8.418;2022-10-29T06:16:57;5.05;;;2.20;;
50429;SDS011;36359;41.556;-8.418;2022-10-29T06:19:23;4.57;;;2.47;;
50429;SDS011;36359;41.556;-8.418;2022-10-29T06:21:48;5.88;;;1.80;;
50429;SDS011;36359;41.556;-8.418;2022-10-29T06:24:14;4.68;;;2.08;;
50429;SDS011;36359;41.556;-8.418;2022-10-29T06:26:40;4.55;;;1.92;;
50429;SDS011;36359;41.556;-8.418;2022-10-29T06:29:06;6.03;;;2.35;;
50429;SDS011;36359;41.556;-8.418;2022-10-29T06:31:31;6.47;;;2.33;;
50429;SDS011;36359;41.556;-8.418;2022-10-29T06:33:57;6.97;;;2.53;;
50429;SDS011;36359;41.556;-8.418;2022-10-29T06:36:23;8.60;;;2.58;;
50429;SDS011;36359;41.556;-8.418;2022-10-29T06:38:49;5.38;;;2.05;;
50429;SDS011;36359;41.556;-8.418;2022-10-29T06:41:15;6.03;;;2.40;;
50429;SDS011;36359;41.556;-8.418;2022-10-29T06:43:40;6.05;;;2.30;;
50429;SDS011;36359;41.556;-8.418;2022-10-29T06:46:06;5.20;;;2.50;;
50429;SDS011;36359;41.556;-8.418;2022-10-29T06:48:32;8.43;;;2.63;;
50429;SDS011;36359;41.556;-8.418;2022-10-29T06:50:58;6.18;;;2.42;;
50429;SDS011;36359;41.556;-8.418;2022-10-29T06:53:25;6.32;;;3.10;;
50429;SDS011;36359;41.556;-8.418;2022-10-29T06:55:51;6.13;;;2.30;;
50429;SDS011;36359;41.556;-8.418;2022-10-29T06:58:18;3.55;;;1.90;;
50429;SDS011;36359;41.556;-8.418;2022-10-29T07:00:45;5.28;;;2.10;;
50429;SDS011;36359;41.556;-8.418;2022-10-29T07:03:11;5.70;;;2.25;;
50429;SDS011;36359;41.556;-8.418;2022-10-29T07:05:38;8.00;;;2.10;;
50429;SDS011;36359;41.556;-8.418;2022-10-29T07:08:04;5.40;;;1.75;;
50429;SDS011;36359;41.556;-8.418;2022-10-29T07:10:30;4.38;;;1.75;;
50429;SDS011;36359;41.556;-8.418;2022-10-29T07:12:57;6.93;;;2.08;;
50429;SDS011;36359;41.556;-8.418;2022-10-29T07:15:22;7.05;;;2.55;;
50429;SDS011;36359;41.556;-8.418;2022-10-29T07:17:58;6.00;;;2.17;;
50429;SDS011;36359;41.556;-8.418;2022-10-29T07:20:29;6.28;;;2.03;;
50429;SDS011;36359;41.556;-8.418;2022-10-29T07:22:56;5.95;;;2.00;;
50429;SDS011;36359;41.556;-8.418;2022-10-29T07:25:23;4.82;;;1.92;;
50429;SDS011;36359;41.556;-8.418;2022-10-29T07:27:49;5.15;;;2.20;;
50429;SDS011;36359;41.556;-8.418;2022-10-29T07:30:15;4.53;;;2.13;;
50429;SDS011;36359;41.556;-8.418;2022-10-29T07:32:41;5.93;;;2.05;;
50429;SDS011;36359;41.556;-8.418;2022-10-29T07:35:06;5.75;;;2.03;;
50429;SDS011;36359;41.556;-8.418;2022-10-29T07:37:32;6.38;;;1.90;;
50429;SDS011;36359;41.556;-8.418;2022-10-29T07:39:58;7.15;;;2.10;;
50429;SDS011;36359;41.556;-8.418;2022-10-29T07:42:24;8.48;;;1.85;;
50429;SDS011;36359;41.556;-8.418;2022-10-29T07:44:50;8.15;;;1.88;;
50429;SDS011;36359;41.556;-8.418;2022-10-29T07:47:15;6.10;;;1.63;;
50429;SDS011;36359;41.556;-8.418;2022-10-29T07:49:41;10.18;;;6.03;;
50429;SDS011;36359;41.556;-8.418;2022-10-29T07:52:07;10.75;;;6.55;;
50429;SDS011;36359;41.556;-8.418;2022-10-29T07:54:33;6.68;;;3.28;;
50429;SDS011;36359;41.556;-8.418;2022-10-29T07:56:59;8.07;;;3.60;;
50429;SDS011;36359;41.556;-8.418;2022-10-29T07:59:25;11.85;;;3.33;;
50429;SDS011;36359;41.556;-8.418;2022-10-29T08:01:50;6.75;;;2.08;;
50429;SDS011;36359;41.556;-8.418;2022-10-29T08:04:16;4.45;;;1.77;;
50429;SDS011;36359;41.556;-8.418;2022-10-29T08:06:42;3.92;;;1.83;;
50429;SDS011;36359;41.556;-8.418;2022-10-29T08:09:09;6.82;;;2.45;;
50429;SDS011;36359;41.556;-8.418;2022-10-29T08:11:36;6.78;;;2.15;;
50429;SDS011;36359;41.556;-8.418;2022-10-29T08:14:02;5.32;;;2.00;;
50429;SDS011;36359;41.556;-8.418;2022-10-29T08:16:28;5.03;;;2.30;;
50429;SDS011;36359;41.556;-8.418;2022-10-29T08:18:54;5.70;;;1.90;;
50429;SDS011;36359;41.556;-8.418;2022-10-29T08:21:20;6.55;;;1.95;;
50429;SDS011;36359;41.556;-8.418;2022-10-29T08:23:46;7.15;;;2.30;;
50429;SDS011;36359;41.556;-8.418;2022-10-29T08:26:12;6.25;;;1.98;;
50429;SDS011;36359;41.556;-8.418;2022-10-29T08:28:38;7.47;;;2.00;;
50429;SDS011;36359;41.556;-8.418;2022-10-29T08:31:04;5.95;;;2.10;;
50429;SDS011;36359;41.556;-8.418;2022-10-29T08:33:29;9.35;;;1.98;;
50429;SDS011;36359;41.556;-8.418;2022-10-29T08:35:55;4.13;;;1.90;;
50429;SDS011;36359;41.556;-8.418;2022-10-29T08:38:21;7.57;;;2.30;;
50429;SDS011;36359;41.556;-8.418;2022-10-29T08:43:33;5.95;;;2.33;;
50429;SDS011;36359;41.556;-8.418;2022-10-29T08:46:08;4.82;;;2.05;;
50429;SDS011;36359;41.556;-8.418;2022-10-29T08:48:46;6.10;;;2.60;;
50429;SDS011;36359;41.556;-8.418;2022-10-29T08:51:20;10.32;;;2.92;;
50429;SDS011;36359;41.556;-8.418;2022-10-29T08:53:49;6.10;;;1.83;;
50429;SDS011;36359;41.556;-8.418;2022-10-29T08:56:19;5.45;;;2.22;;
50429;SDS011;36359;41.556;-8.418;2022-10-29T08:59:00;8.48;;;2.88;;
50429;SDS011;36359;41.556;-8.418;2022-10-29T09:01:31;5.88;;;2.65;;
50429;SDS011;36359;41.556;-8.418;2022-10-29T09:03:57;9.95;;;3.85;;
50429;SDS011;36359;41.556;-8.418;2022-10-29T09:06:30;6.45;;;3.03;;
50429;SDS011;36359;41.556;-8.418;2022-10-29T09:09:16;7.38;;;2.67;;
50429;SDS011;36359;41.556;-8.418;2022-10-29T09:17:32;5.60;;;2.08;;
50429;SDS011;36359;41.556;-8.418;2022-10-29T09:25:53;3.95;;;1.80;;
50429;SDS011;36359;41.556;-8.418;2022-10-29T09:31:41;5.07;;;1.90;;
50429;SDS011;36359;41.556;-8.418;2022-10-29T09:34:13;5.53;;;1.70;;
50429;SDS011;36359;41.556;-8.418;2022-10-29T09:36:49;2.42;;;1.40;;
50429;SDS011;36359;41.556;-8.418;2022-10-29T09:39:15;4.65;;;1.55;;
50429;SDS011;36359;41.556;-8.418;2022-10-29T09:41:52;5.40;;;1.77;;
50429;SDS011;36359;41.556;-8.418;2022-10-29T09:52:18;5.40;;;1.67;;
50429;SDS011;36359;41.556;-8.418;2022-10-29T09:54:50;4.13;;;1.70;;
50429;SDS011;36359;41.556;-8.418;2022-10-29T09:57:18;4.35;;;1.67;;
50429;SDS011;36359;41.556;-8.418;2022-10-29T09:59:59;4.70;;;1.73;;
50429;SDS011;36359;41.556;-8.418;2022-10-29T10:02:44;4.50;;;2.10;;
50429;SDS011;36359;41.556;-8.418;2022-10-29T10:05:22;6.53;;;2.50;;
50429;SDS011;36359;41.556;-8.418;2022-10-29T10:10:33;4.78;;;2.10;;
50429;SDS011;36359;41.556;-8.418;2022-10-29T10:13:02;8.07;;;2.67;;
50429;SDS011;36359;41.556;-8.418;2022-10-29T10:15:33;8.45;;;3.00;;
50429;SDS011;36359;41.556;-8.418;2022-10-29T10:18:01;7.10;;;2.53;;
50429;SDS011;36359;41.556;-8.418;2022-10-29T10:20:29;6.50;;;3.45;;
50429;SDS011;36359;41.556;-8.418;2022-10-29T10:23:25;6.82;;;2.50;;
50429;SDS011;36359;41.556;-8.418;2022-10-29T10:25:53;4.72;;;1.88;;
50429;SDS011;36359;41.556;-8.418;2022-10-29T10:28:21;6.35;;;2.70;;
50429;SDS011;36359;41.556;-8.418;2022-10-29T10:33:51;5.47;;;2.60;;
50429;SDS011;36359;41.556;-8.418;2022-10-29T10:38:50;9.10;;;3.28;;
50429;SDS011;36359;41.556;-8.418;2022-10-29T10:41:24;12.60;;;5.13;;
50429;SDS011;36359;41.556;-8.418;2022-10-29T10:43:53;6.35;;;3.10;;
50429;SDS011;36359;41.556;-8.418;2022-10-29T10:46:30;6.32;;;3.38;;
50429;SDS011;36359;41.556;-8.418;2022-10-29T10:49:01;7.38;;;3.25;;
50429;SDS011;36359;41.556;-8.418;2022-10-29T10:51:35;5.50;;;2.90;;
50429;SDS011;36359;41.556;-8.418;2022-10-29T10:54:03;5.68;;;2.38;;
50429;SDS011;36359;41.556;-8.418;2022-10-29T10:56:59;8.10;;;3.15;;
50429;SDS011;36359;41.556;-8.418;2022-10-29T10:59:35;8.05;;;2.90;;
50429;SDS011;36359;41.556;-8.418;2022-10-29T11:02:27;6.32;;;2.60;;
50429;SDS011;36359;41.556;-8.418;2022-10-29T11:04:55;6.75;;;3.15;;
50429;SDS011;36359;41.556;-8.418;2022-10-29T11:07:26;7.75;;;2.97;;
50429;SDS011;36359;41.556;-8.418;2022-10-29T11:09:56;5.10;;;2.67;;
50429;SDS011;36359;41.556;-8.418;2022-10-29T11:12:29;5.43;;;2.38;;
50429;SDS011;36359;41.556;-8.418;2022-10-29T11:17:57;5.38;;;2.25;;
50429;SDS011;36359;41.556;-8.418;2022-10-29T11:20:31;9.32;;;3.08;;
50429;SDS011;36359;41.556;-8.418;2022-10-29T11:30:53;6.72;;;2.40;;
50429;SDS011;36359;41.556;-8.418;2022-10-29T11:33:29;9.45;;;2.40;;
50429;SDS011;36359;41.556;-8.418;2022-10-29T11:36:24;5.95;;;2.42;;
50429;SDS011;36359;41.556;-8.418;2022-10-29T11:38:56;12.35;;;2.92;;
50429;SDS011;36359;41.556;-8.418;2022-10-29T11:41:33;7.53;;;2.55;;
50429;SDS011;36359;41.556;-8.418;2022-10-29T11:44:11;11.13;;;3.28;;
50429;SDS011;36359;41.556;-8.418;2022-10-29T11:46:42;9.88;;;3.80;;
50429;SDS011;36359;41.556;-8.418;2022-10-29T11:49:30;8.02;;;3.03;;
50429;SDS011;36359;41.556;-8.418;2022-10-29T11:57:04;9.05;;;3.05;;
50429;SDS011;36359;41.556;-8.418;2022-10-29T12:04:33;9.38;;;5.82;;
50429;SDS011;36359;41.556;-8.418;2022-10-29T12:18:17;6.00;;;2.53;;
50429;SDS011;36359;41.556;-8.418;2022-10-29T12:21:13;6.05;;;2.58;;
50429;SDS011;36359;41.556;-8.418;2022-10-29T12:27:12;8.20;;;3.05;;
50429;SDS011;36359;41.556;-8.418;2022-10-29T12:35:21;8.82;;;2.30;;
50429;SDS011;36359;41.556;-8.418;2022-10-29T12:41:33;7.22;;;2.50;;
50429;SDS011;36359;41.556;-8.418;2022-10-29T12:44:12;4.95;;;2.05;;
50429;SDS011;36359;41.556;-8.418;2022-10-29T12:47:03;6.18;;;2.25;;
50429;SDS011;36359;41.556;-8.418;2022-10-29T12:55:38;14.02;;;4.45;;
50429;SDS011;36359;41.556;-8.418;2022-10-29T13:09:17;11.77;;;3.53;;
50429;SDS011;36359;41.556;-8.418;2022-10-29T13:16:57;11.10;;;4.13;;
50429;SDS011;36359;41.556;-8.418;2022-10-29T13:22:32;10.70;;;3.93;;
50429;SDS011;36359;41.556;-8.418;2022-10-29T13:27:52;6.97;;;3.33;;
50429;SDS011;36359;41.556;-8.418;2022-10-29T13:32:46;9.18;;;2.97;;
50429;SDS011;36359;41.556;-8.418;2022-10-29T13:37:47;5.78;;;2.45;;
50429;SDS011;36359;41.556;-8.418;2022-10-29T13:45:19;4.03;;;1.70;;
50429;SDS011;36359;41.556;-8.418;2022-10-29T13:47:45;2.75;;;1.65;;
50429;SDS011;36359;41.556;-8.418;2022-10-29T13:50:16;4.68;;;1.20;;
50429;SDS011;36359;41.556;-8.418;2022-10-29T13:52:43;2.70;;;0.68;;
50429;SDS011;36359;41.556;-8.418;2022-10-29T13:55:13;4.70;;;1.48;;
50429;SDS011;36359;41.556;-8.418;2022-10-29T14:00:23;4.20;;;1.17;;
50429;SDS011;36359;41.556;-8.418;2022-10-29T14:03:01;2.80;;;0.80;;
50429;SDS011;36359;41.556;-8.418;2022-10-29T14:05:31;2.03;;;1.10;;
50429;SDS011;36359;41.556;-8.418;2022-10-29T14:13:18;2.75;;;1.10;;
50429;SDS011;36359;41.556;-8.418;2022-10-29T14:18:30;2.67;;;0.60;;
50429;SDS011;36359;41.556;-8.418;2022-10-29T14:21:01;4.35;;;0.80;;
50429;SDS011;36359;41.556;-8.418;2022-10-29T14:23:29;2.67;;;1.17;;
50429;SDS011;36359;41.556;-8.418;2022-10-29T14:25:56;3.35;;;1.20;;
50429;SDS011;36359;41.556;-8.418;2022-10-29T14:28:28;5.05;;;1.33;;
50429;SDS011;36359;41.556;-8.418;2022-10-29T14:30:59;4.13;;;0.73;;
50429;SDS011;36359;41.556;-8.418;2022-10-29T14:36:19;1.90;;;0.77;;
50429;SDS011;36359;41.556;-8.418;2022-10-29T14:41:30;5.50;;;1.20;;
50429;SDS011;36359;41.556;-8.418;2022-10-29T14:46:39;4.35;;;0.93;;
50429;SDS011;36359;41.556;-8.418;2022-10-29T14:51:39;6.63;;;1.67;;
50429;SDS011;36359;41.556;-8.418;2022-10-29T14:54:14;2.50;;;1.00;;
50429;SDS011;36359;41.556;-8.418;2022-10-29T14:56:46;5.95;;;0.95;;
50429;SDS011;36359;41.556;-8.418;2022-10-29T14:59:16;3.90;;;1.33;;
50429;SDS011;36359;41.556;-8.418;2022-10-29T15:01:46;2.25;;;0.90;;
50429;SDS011;36359;41.556;-8.418;2022-10-29T15:04:19;4.13;;;1.40;;
50429;SDS011;36359;41.556;-8.418;2022-10-29T15:06:47;1.85;;;0.80;;
50429;SDS011;36359;41.556;-8.418;2022-10-29T15:09:14;3.75;;;1.30;;
50429;SDS011;36359;41.556;-8.418;2022-10-29T15:12:33;4.07;;;1.00;;
50429;SDS011;36359;41.556;-8.418;2022-10-29T15:14:49;5.05;;;0.95;;
50429;SDS011;36359;41.556;-8.418;2022-10-29T15:17:26;3.55;;;0.80;;
50429;SDS011;36359;41.556;-8.418;2022-10-29T15:19:56;3.92;;;1.38;;
50429;SDS011;36359;41.556;-8.418;2022-10-29T15:22:25;3.05;;;1.33;;
50429;SDS011;36359;41.556;-8.418;2022-10-29T15:24:57;4.95;;;1.27;;
50429;SDS011;36359;41.556;-8.418;2022-10-29T15:27:29;5.97;;;1.38;;
50429;SDS011;36359;41.556;-8.418;2022-10-29T15:29:55;4.73;;;1.60;;
50429;SDS011;36359;41.556;-8.418;2022-10-29T15:32:21;4.85;;;1.20;;
50429;SDS011;36359;41.556;-8.418;2022-10-29T15:40:19;5.22;;;1.67;;
50429;SDS011;36359;41.556;-8.418;2022-10-29T15:42:49;6.38;;;1.80;;
50429;SDS011;36359;41.556;-8.418;2022-10-29T15:45:17;7.00;;;2.78;;
50429;SDS011;36359;41.556;-8.418;2022-10-29T15:47:45;6.63;;;1.95;;
50429;SDS011;36359;41.556;-8.418;2022-10-29T15:50:37;5.60;;;1.60;;
50429;SDS011;36359;41.556;-8.418;2022-10-29T15:53:04;5.00;;;1.50;;
50429;SDS011;36359;41.556;-8.418;2022-10-29T15:55:32;4.63;;;1.63;;
50429;SDS011;36359;41.556;-8.418;2022-10-29T15:58:02;5.22;;;1.73;;
50429;SDS011;36359;41.556;-8.418;2022-10-29T16:00:28;6.20;;;2.78;;
50429;SDS011;36359;41.556;-8.418;2022-10-29T16:02:56;7.53;;;2.47;;
50429;SDS011;36359;41.556;-8.418;2022-10-29T16:05:45;4.72;;;2.45;;
50429;SDS011;36359;41.556;-8.418;2022-10-29T16:08:21;8.02;;;2.60;;
50429;SDS011;36359;41.556;-8.418;2022-10-29T16:11:04;4.78;;;2.70;;
50429;SDS011;36359;41.556;-8.418;2022-10-29T16:13:38;6.65;;;3.60;;
50429;SDS011;36359;41.556;-8.418;2022-10-29T16:16:05;6.78;;;3.05;;
50429;SDS011;36359;41.556;-8.418;2022-10-29T16:18:36;6.82;;;3.38;;
50429;SDS011;36359;41.556;-8.418;2022-10-29T16:21:03;6.40;;;3.83;;
50429;SDS011;36359;41.556;-8.418;2022-10-29T16:23:31;7.72;;;3.90;;
50429;SDS011;36359;41.556;-8.418;2022-10-29T16:26:00;4.85;;;3.10;;
50429;SDS011;36359;41.556;-8.418;2022-10-29T16:28:26;5.93;;;3.55;;
50429;SDS011;36359;41.556;-8.418;2022-10-29T16:30:53;7.50;;;3.78;;
50429;SDS011;36359;41.556;-8.418;2022-10-29T16:33:20;9.15;;;4.53;;
50429;SDS011;36359;41.556;-8.418;2022-10-29T16:35:45;10.38;;;4.75;;
50429;SDS011;36359;41.556;-8.418;2022-10-29T16:38:11;9.40;;;4.50;;
50429;SDS011;36359;41.556;-8.418;2022-10-29T16:40:37;8.80;;;4.60;;
50429;SDS011;36359;41.556;-8.418;2022-10-29T16:43:03;9.20;;;5.15;;
50429;SDS011;36359;41.556;-8.418;2022-10-29T16:45:29;8.80;;;5.28;;
50429;SDS011;36359;41.556;-8.418;2022-10-29T16:47:56;8.93;;;4.90;;
50429;SDS011;36359;41.556;-8.418;2022-10-29T16:50:26;10.50;;;6.38;;
50429;SDS011;36359;41.556;-8.418;2022-10-29T16:53:03;10.60;;;5.55;;
50429;SDS011;36359;41.556;-8.418;2022-10-29T16:55:31;11.73;;;6.93;;
50429;SDS011;36359;41.556;-8.418;2022-10-29T17:00:29;12.48;;;7.60;;
50429;SDS011;36359;41.556;-8.418;2022-10-29T17:03:00;14.90;;;8.57;;
50429;SDS011;36359;41.556;-8.418;2022-10-29T17:05:26;17.88;;;8.88;;
50429;SDS011;36359;41.556;-8.418;2022-10-29T17:07:53;15.60;;;8.60;;
50429;SDS011;36359;41.556;-8.418;2022-10-29T17:10:19;13.93;;;8.95;;
50429;SDS011;36359;41.556;-8.418;2022-10-29T17:12:46;12.55;;;8.70;;
50429;SDS011;36359;41.556;-8.418;2022-10-29T17:15:12;12.70;;;8.73;;
50429;SDS011;36359;41.556;-8.418;2022-10-29T17:17:37;12.70;;;9.32;;
50429;SDS011;36359;41.556;-8.418;2022-10-29T17:20:03;16.30;;;9.75;;
50429;SDS011;36359;41.556;-8.418;2022-10-29T17:22:30;19.17;;;13.73;;
50429;SDS011;36359;41.556;-8.418;2022-10-29T17:24:55;21.00;;;13.02;;
50429;SDS011;36359;41.556;-8.418;2022-10-29T17:27:21;19.50;;;13.45;;
50429;SDS011;36359;41.556;-8.418;2022-10-29T17:29:47;26.85;;;16.33;;
50429;SDS011;36359;41.556;-8.418;2022-10-29T17:32:13;16.80;;;10.57;;
50429;SDS011;36359;41.556;-8.418;2022-10-29T17:34:38;14.23;;;7.38;;
50429;SDS011;36359;41.556;-8.418;2022-10-29T17:37:04;11.88;;;5.15;;
50429;SDS011;36359;41.556;-8.418;2022-10-29T17:39:30;11.48;;;4.35;;
50429;SDS011;36359;41.556;-8.418;2022-10-29T17:41:56;9.00;;;3.53;;
50429;SDS011;36359;41.556;-8.418;2022-10-29T17:44:22;11.10;;;3.90;;
50429;SDS011;36359;41.556;-8.418;2022-10-29T17:46:50;8.48;;;2.97;;